Time;durP1;ratioP1;P1;durP2;ratioP2;P2;SDS_P1;SDS_P2;PMS_P1;PMS_P2;Temp;Humidity;BMP_temperature;BMP_pressure;BME280_temperature;BME280_humidity;BME280_pressure;Samples;Min_cycle;Max_cycle;Signal;HPM_P1;HPM_P2
2021/08/10 00:01:49;;;;;;;10.43;3.00;;;;;;;14.61;77.71;101621.84;5019480;28;20065;-72
2021/08/10 00:04:15;;;;;;;12.20;2.85;;;;;;;14.65;78.61;101621.56;5036958;28;20212;-73
2021/08/10 00:06:40;;;;;;;9.60;2.47;;;;;;;14.64;78.28;101626.03;5036688;28;20069;-72
2021/08/10 00:09:06;;;;;;;14.85;3.35;;;;;;;14.63;77.99;101625.22;5037065;28;20378;-72
2021/08/10 00:11:31;;;;;;;15.57;2.90;;;;;;;14.62;78.69;101622.69;5036757;28;20120;-72
2021/08/10 00:13:56;;;;;;;9.32;2.58;;;;;;;14.63;78.44;101624.38;5036820;28;20462;-72
2021/08/10 00:16:22;;;;;;;12.05;2.80;;;;;;;14.63;78.74;101627.88;5018802;28;20033;-72
2021/08/10 00:18:47;;;;;;;12.55;3.13;;;;;;;14.63;79.19;101614.50;5036607;28;20485;-71
2021/08/10 00:21:13;;;;;;;11.68;2.88;;;;;;;14.63;79.58;101625.22;5037238;28;20437;-72
2021/08/10 00:23:38;;;;;;;12.80;3.03;;;;;;;14.59;79.43;101621.09;5036584;28;20436;-72
2021/08/10 00:26:03;;;;;;;9.88;3.00;;;;;;;14.57;79.72;101616.88;5036582;28;20519;-71
2021/08/10 00:28:29;;;;;;;10.73;3.00;;;;;;;14.49;80.33;101614.94;5036205;28;20033;-72
2021/08/10 00:30:55;;;;;;;14.05;3.33;;;;;;;14.43;80.91;101615.50;5036463;28;20029;-71
2021/08/10 00:33:20;;;;;;;9.07;2.92;;;;;;;14.35;81.09;101621.59;5036785;28;20108;-72
2021/08/10 00:35:45;;;;;;;14.48;4.22;;;;;;;14.29;81.17;101609.63;5036410;28;20061;-71
2021/08/10 00:38:11;;;;;;;14.00;3.50;;;;;;;14.28;82.25;101612.47;5036056;28;20029;-71
2021/08/10 00:40:38;;;;;;;10.15;3.53;;;;;;;14.26;81.89;101612.59;5036419;28;20037;-72
2021/08/10 00:43:03;;;;;;;11.10;3.47;;;;;;;14.23;82.93;101617.41;5036032;28;20033;-72
2021/08/10 00:45:28;;;;;;;16.55;3.70;;;;;;;14.23;82.74;101614.72;5036149;28;20036;-72
2021/08/10 00:47:54;;;;;;;11.15;3.47;;;;;;;14.22;83.04;101611.19;5036218;28;20034;-71
2021/08/10 00:50:19;;;;;;;13.32;3.50;;;;;;;14.24;82.25;101611.03;5036394;28;20101;-71
2021/08/10 00:52:45;;;;;;;12.40;3.45;;;;;;;14.22;82.21;101619.22;5036062;28;20033;-72
2021/08/10 00:55:11;;;;;;;14.50;3.28;;;;;;;14.22;82.40;101613.88;5035974;28;20029;-72
2021/08/10 00:57:36;;;;;;;13.75;3.80;;;;;;;14.24;82.34;101609.22;5036141;28;20526;-72
2021/08/10 01:00:04;;;;;;;13.15;3.28;;;;;;;14.27;82.36;101610.75;5035090;28;20048;-71
2021/08/10 01:02:29;;;;;;;13.88;3.83;;;;;;;14.36;81.63;101614.41;5035795;28;20049;-72
2021/08/10 01:04:55;;;;;;;13.95;3.20;;;;;;;14.37;81.58;101611.56;5035654;28;20509;-72
2021/08/10 01:07:39;;;;;;;17.35;3.60;;;;;;;14.35;81.73;101607.38;5018362;28;20413;-72
2021/08/10 01:10:10;;;;;;;8.15;2.90;;;;;;;14.31;82.23;101612.16;5036214;28;20049;-72
2021/08/10 01:12:43;;;;;;;;;;;;;;;14.28;82.09;101601.75;5035874;28;20034;-72
2021/08/10 01:15:18;;;;;;;12.40;3.17;;;;;;;14.26;82.44;101598.38;5036073;28;19909;-72
2021/08/10 01:17:51;;;;;;;10.63;3.20;;;;;;;14.24;81.92;101595.84;5035861;28;20063;-72
2021/08/10 01:20:40;;;;;;;14.60;3.90;;;;;;;14.21;82.50;101609.53;5036199;28;20082;-72
2021/08/10 01:23:12;;;;;;;15.15;3.50;;;;;;;14.24;82.14;101600.34;5035919;28;20030;-72
2021/08/10 01:25:55;;;;;;;14.20;3.78;;;;;;;14.23;82.48;101596.84;5035801;28;20064;-72
2021/08/10 01:28:36;;;;;;;12.70;3.47;;;;;;;14.22;82.21;101602.34;5035846;28;20429;-72
2021/08/10 01:31:04;;;;;;;;;;;;;;;14.20;82.52;101602.47;5035899;28;20037;-72
2021/08/10 01:33:33;;;;;;;13.15;3.40;;;;;;;14.21;82.39;101600.63;5035048;28;19944;-72
2021/08/10 01:35:59;;;;;;;15.90;3.80;;;;;;;14.19;82.47;101597.28;5035483;28;20025;-72
2021/08/10 01:38:27;;;;;;;13.70;3.78;;;;;;;14.16;83.04;101602.91;5035244;28;20041;-72
2021/08/10 01:40:52;;;;;;;14.63;3.63;;;;;;;14.13;83.37;101596.00;5035088;28;20029;-72
2021/08/10 01:43:19;;;;;;;16.48;3.70;;;;;;;14.10;82.82;101596.28;5035463;28;20033;-72
2021/08/10 01:45:46;;;;;;;12.40;4.10;;;;;;;14.10;83.44;101596.28;5035517;28;20086;-71
2021/08/10 01:48:13;;;;;;;12.80;4.00;;;;;;;14.11;84.28;101604.19;5035271;28;20033;-71
2021/08/10 01:50:39;;;;;;;17.40;5.13;;;;;;;14.08;85.06;101612.50;5035720;28;20040;-71
2021/08/10 01:53:05;;;;;;;16.30;4.75;;;;;;;14.05;85.72;101615.47;5035940;28;20450;-71
2021/08/10 01:55:30;;;;;;;16.60;4.88;;;;;;;14.01;87.01;101613.22;5035514;28;20090;-73
2021/08/10 01:57:57;;;;;;;14.65;4.70;;;;;;;13.90;87.13;101609.69;5018397;28;20032;-72
2021/08/10 02:00:23;;;;;;;16.00;5.47;;;;;;;13.83;88.82;101613.09;5035929;28;20034;-72
2021/08/10 02:02:49;;;;;;;18.75;4.90;;;;;;;13.75;88.58;101613.81;5036135;28;20075;-73
2021/08/10 02:05:15;;;;;;;23.75;5.55;;;;;;;13.70;89.08;101610.69;5017831;28;20413;-73
2021/08/10 02:07:42;;;;;;;22.50;5.85;;;;;;;13.66;89.90;101614.63;5034870;28;20051;-72
2021/08/10 02:10:09;;;;;;;15.77;5.60;;;;;;;13.63;89.89;101617.59;5034080;28;20065;-72
2021/08/10 02:12:37;;;;;;;20.20;6.28;;;;;;;13.60;90.08;101612.50;5035050;28;20064;-74
2021/08/10 02:15:02;;;;;;;13.07;5.55;;;;;;;13.57;90.02;101616.34;5034908;28;20038;-72
2021/08/10 02:17:28;;;;;;;23.13;7.28;;;;;;;13.53;90.62;101614.91;5034591;28;20117;-73
2021/08/10 02:19:53;;;;;;;25.52;5.97;;;;;;;13.51;90.70;101616.88;5034517;28;20041;-73
2021/08/10 02:22:19;;;;;;;20.20;6.43;;;;;;;13.49;90.47;101617.00;5034506;28;20535;-72
2021/08/10 02:25:07;;;;;;;17.60;6.07;;;;;;;13.52;91.05;101619.41;5034265;28;20041;-73
2021/08/10 02:27:38;;;;;;;21.52;6.93;;;;;;;13.53;90.97;101615.75;5034037;28;20033;-73
2021/08/10 02:30:12;;;;;;;22.77;7.10;;;;;;;13.53;90.95;101625.63;5034671;28;20116;-72
2021/08/10 02:32:39;;;;;;;22.33;6.90;;;;;;;13.52;91.17;101622.06;5034436;28;20425;-73
2021/08/10 02:35:06;;;;;;;21.35;6.80;;;;;;;13.51;91.00;101619.53;5034723;28;20052;-72
2021/08/10 02:37:34;;;;;;;19.50;5.72;;;;;;;13.51;91.05;101624.88;5034436;28;20034;-72
2021/08/10 02:40:03;;;;;;;21.35;7.38;;;;;;;13.51;91.13;101619.53;5033872;28;20052;-72
2021/08/10 02:42:29;;;;;;;14.93;6.43;;;;;;;13.54;91.26;101624.59;5034167;28;20104;-72
2021/08/10 02:44:58;;;;;;;17.70;5.78;;;;;;;13.53;90.79;101621.09;5033673;28;20117;-72
2021/08/10 02:47:25;;;;;;;18.42;5.70;;;;;;;13.54;90.66;101624.59;5034252;28;20036;-72
2021/08/10 02:49:50;;;;;;;17.30;7.10;;;;;;;13.53;90.82;101629.13;5033817;28;20038;-72
2021/08/10 02:52:16;;;;;;;23.30;6.07;;;;;;;13.51;90.82;101622.22;5034178;28;20033;-72
2021/08/10 02:54:42;;;;;;;18.33;7.28;;;;;;;13.49;91.05;101626.88;5033778;28;20374;-72
2021/08/10 02:57:33;;;;;;;20.17;6.93;;;;;;;13.47;91.33;101621.66;5033882;28;20041;-72
2021/08/10 03:00:05;;;;;;;24.15;7.45;;;;;;;13.47;91.55;101626.16;5033445;28;20091;-72
2021/08/10 03:02:56;;;;;;;22.73;7.35;;;;;;;13.46;91.79;101619.97;5016665;28;20026;-72
2021/08/10 03:05:23;;;;;;;20.92;7.43;;;;;;;13.46;91.85;101624.47;5034003;28;20075;-72
2021/08/10 03:07:55;;;;;;;16.45;7.35;;;;;;;13.44;91.61;101619.25;5033513;28;20378;-73
2021/08/10 03:10:25;;;;;;;26.10;8.13;;;;;;;13.48;91.96;101620.69;5034007;28;20092;-72
2021/08/10 03:12:52;;;;;;;27.55;7.78;;;;;;;13.49;92.34;101625.03;5033371;28;20037;-72
2021/08/10 03:15:22;;;;;;;20.08;7.63;;;;;;;13.49;91.69;101619.69;5033621;28;20030;-72
2021/08/10 03:17:51;;;;;;;20.38;8.25;;;;;;;13.49;91.67;101618.84;5033163;28;20075;-72
2021/08/10 03:20:18;;;;;;;21.80;8.80;;;;;;;13.47;91.76;101623.50;5033555;28;20030;-72
2021/08/10 03:22:45;;;;;;;25.73;8.43;;;;;;;13.45;91.78;101625.44;5032643;28;20029;-73
2021/08/10 03:25:13;;;;;;;22.05;7.60;;;;;;;13.47;92.08;101627.00;5015595;28;20037;-72
2021/08/10 03:27:40;;;;;;;21.10;8.18;;;;;;;13.48;92.07;101626.03;5033458;28;20030;-72
2021/08/10 03:30:07;;;;;;;24.92;8.45;;;;;;;13.49;91.91;101621.53;5033710;28;20128;-73
2021/08/10 03:32:34;;;;;;;23.05;8.48;;;;;;;13.46;92.14;101622.63;5033376;28;20041;-72
2021/08/10 03:35:00;;;;;;;25.63;8.73;;;;;;;13.45;92.16;101617.44;5033293;28;20030;-72
2021/08/10 03:37:25;;;;;;;27.42;8.65;;;;;;;13.46;91.92;101619.13;5033360;28;20048;-72
2021/08/10 03:39:51;;;;;;;22.67;7.97;;;;;;;13.43;91.46;101622.91;5032915;28;20124;-72
2021/08/10 03:42:17;;;;;;;24.42;8.23;;;;;;;13.43;91.69;101624.75;5033376;28;20087;-73
2021/08/10 03:44:43;;;;;;;21.23;8.23;;;;;;;13.39;91.63;101627.69;5033586;28;20368;-72
2021/08/10 03:47:15;;;;;;;28.98;8.32;;;;;;;13.34;91.51;101627.25;5033509;28;20033;-72
2021/08/10 03:49:41;;;;;;;23.20;9.23;;;;;;;13.30;91.80;101630.31;5033570;28;20033;-72
2021/08/10 03:52:10;;;;;;;24.13;9.02;;;;;;;13.26;92.21;101623.56;5033442;28;20026;-72
2021/08/10 03:54:36;;;;;;;24.13;9.45;;;;;;;13.22;92.00;101629.16;5032937;28;20095;-72
2021/08/10 03:57:03;;;;;;;23.58;9.93;;;;;;;13.19;91.98;101628.59;5033063;28;20465;-72
2021/08/10 03:59:31;;;;;;;26.15;9.95;;;;;;;13.17;92.31;101631.41;5032818;28;20030;-72
2021/08/10 04:01:56;;;;;;;22.65;9.27;;;;;;;13.17;92.54;101623.41;5033018;28;20029;-72
2021/08/10 04:04:23;;;;;;;25.92;10.45;;;;;;;13.18;92.51;101626.91;5033424;28;20470;-72
2021/08/10 04:06:49;;;;;;;32.22;11.02;;;;;;;13.16;92.54;101632.38;5032681;28;20056;-72
2021/08/10 04:09:15;;;;;;;30.95;10.45;;;;;;;13.16;92.62;101628.88;5011923;28;20125;-72
2021/08/10 04:11:42;;;;;;;31.90;10.52;;;;;;;13.18;92.78;101635.78;5013316;28;20034;-71
2021/08/10 04:14:08;;;;;;;23.00;10.20;;;;;;;13.20;92.51;101631.16;5013278;28;20116;-71
2021/08/10 04:16:55;;;;;;;29.20;9.68;;;;;;;13.23;92.43;101627.38;5013268;28;20153;-71
2021/08/10 04:19:26;;;;;;;24.77;10.25;;;;;;;13.24;92.57;101626.34;5013225;28;20030;-72
2021/08/10 04:21:53;;;;;;;20.75;9.75;;;;;;;13.24;92.69;101629.03;5013819;28;20021;-72
2021/08/10 04:24:18;;;;;;;26.08;9.75;;;;;;;13.23;92.49;101627.38;5014105;28;20089;-72
2021/08/10 04:26:43;;;;;;;20.27;9.13;;;;;;;13.22;92.58;101626.50;5012970;28;20045;-72
2021/08/10 04:29:09;;;;;;;20.85;9.20;;;;;;;13.18;92.46;101630.44;5013107;28;20034;-72
2021/08/10 04:31:34;;;;;;;25.60;10.35;;;;;;;13.14;92.25;101634.38;5012418;28;20149;-72
2021/08/10 04:33:59;;;;;;;20.27;9.20;;;;;;;13.14;91.80;101641.53;5015776;28;20037;-74
2021/08/10 04:36:25;;;;;;;20.23;9.52;;;;;;;13.10;92.01;101645.47;5016516;28;20041;-72
2021/08/10 04:38:50;;;;;;;28.05;9.95;;;;;;;13.04;92.15;101638.84;5016576;28;20030;-71
2021/08/10 04:41:15;;;;;;;28.30;10.02;;;;;;;12.99;92.45;101639.25;5016967;28;20037;-72
2021/08/10 04:43:41;;;;;;;29.30;10.68;;;;;;;12.94;92.87;101641.47;5016566;28;20486;-74
2021/08/10 04:46:06;;;;;;;31.38;11.10;;;;;;;12.91;92.59;101641.72;5016480;28;20030;-73
2021/08/10 04:48:31;;;;;;;25.05;10.30;;;;;;;12.93;93.01;101636.25;5017025;28;20124;-72
2021/08/10 04:50:57;;;;;;;28.20;10.90;;;;;;;12.92;92.85;101639.91;5016297;28;20485;-73
2021/08/10 04:53:22;;;;;;;28.67;10.65;;;;;;;12.89;93.27;101641.03;5016905;28;20038;-72
2021/08/10 04:55:49;;;;;;;20.77;9.73;;;;;;;12.88;92.78;101639.31;5016146;28;20497;-72
2021/08/10 04:58:14;;;;;;;34.30;11.13;;;;;;;12.86;93.21;101635.97;5016394;28;20125;-73
2021/08/10 05:00:39;;;;;;;22.30;11.48;;;;;;;12.85;93.10;101634.25;5014875;28;20065;-73
2021/08/10 05:03:05;;;;;;;24.08;11.30;;;;;;;12.84;93.41;101641.44;5015573;28;20365;-72
2021/08/10 05:05:30;;;;;;;27.13;12.43;;;;;;;12.86;93.27;101646.63;5015645;28;20398;-72
2021/08/10 05:07:56;;;;;;;28.90;11.98;;;;;;;12.91;93.17;101656.91;5015979;28;20360;-73
2021/08/10 05:10:21;;;;;;;25.92;12.00;;;;;;;12.99;93.56;101649.09;5034580;28;20053;-71
2021/08/10 05:12:46;;;;;;;27.48;10.43;;;;;;;13.08;93.21;101656.28;5036342;28;20080;-72
2021/08/10 05:15:12;;;;;;;24.85;10.93;;;;;;;13.16;93.07;101648.41;5035301;28;20064;-71
2021/08/10 05:17:38;;;;;;;23.23;9.65;;;;;;;13.22;92.75;101653.22;5035709;28;20124;-74
2021/08/10 05:20:04;;;;;;;25.38;9.75;;;;;;;13.25;92.58;101648.59;5035173;28;20535;-73
2021/08/10 05:22:29;;;;;;;23.75;9.95;;;;;;;13.29;92.67;101650.84;5036109;28;20038;-73
2021/08/10 05:24:55;;;;;;;25.80;9.82;;;;;;;13.30;92.16;101643.69;5035892;28;20032;-74
2021/08/10 05:27:20;;;;;;;22.33;9.85;;;;;;;13.32;92.03;101644.41;5035457;28;20033;-73
2021/08/10 05:29:46;;;;;;;23.55;9.50;;;;;;;13.35;92.16;101649.50;5035706;28;20464;-73
2021/08/10 05:32:11;;;;;;;28.17;9.70;;;;;;;13.43;91.89;101651.47;5017743;28;20037;-73
2021/08/10 05:34:38;;;;;;;17.98;9.45;;;;;;;13.53;91.42;101649.66;5035169;28;20033;-73
2021/08/10 05:37:07;;;;;;;21.52;9.18;;;;;;;13.62;91.38;101656.03;5034563;28;20037;-73
2021/08/10 05:39:32;;;;;;;33.35;10.35;;;;;;;13.71;91.26;101655.19;5018146;28;20056;-74
2021/08/10 05:41:58;;;;;;;18.85;8.50;;;;;;;13.86;91.02;101651.09;5034951;28;20029;-73
2021/08/10 05:44:23;;;;;;;23.85;9.05;;;;;;;14.08;91.44;101654.47;5034352;28;20067;-74
2021/08/10 05:46:49;;;;;;;22.90;8.70;;;;;;;14.28;90.35;101661.47;5035338;28;20029;-73
2021/08/10 05:49:15;;;;;;;19.20;7.78;;;;;;;14.53;88.96;101661.84;5035365;28;20144;-72
2021/08/10 05:51:40;;;;;;;17.50;7.90;;;;;;;14.68;88.27;101667.63;5034657;28;20469;-71
2021/08/10 05:54:07;;;;;;;18.65;7.63;;;;;;;14.78;87.28;101663.09;5034690;28;20029;-71
2021/08/10 05:56:33;;;;;;;19.80;7.47;;;;;;;14.77;87.84;101668.59;5034972;28;20033;-71
2021/08/10 05:58:58;;;;;;;19.23;6.47;;;;;;;14.77;86.70;101647.16;5035111;28;20433;-71
2021/08/10 06:01:23;;;;;;;20.67;7.43;;;;;;;14.80;87.12;101661.09;5035389;28;20116;-72
2021/08/10 06:03:49;;;;;;;20.88;8.23;;;;;;;14.78;87.78;101659.56;5017485;28;20069;-71
2021/08/10 06:06:14;;;;;;;17.65;6.63;;;;;;;14.78;87.03;101668.44;5035295;28;20489;-71
2021/08/10 06:08:40;;;;;;;16.55;7.22;;;;;;;14.80;87.26;101674.47;5036065;28;20107;-72
2021/08/10 06:11:05;;;;;;;25.35;7.85;;;;;;;14.77;87.74;101668.59;5036025;28;20534;-71
2021/08/10 06:13:31;;;;;;;16.95;7.32;;;;;;;14.69;86.83;101665.78;5035518;28;20030;-70
2021/08/10 06:15:56;;;;;;;25.35;8.13;;;;;;;14.74;87.84;101668.88;5035404;28;20144;-71
2021/08/10 06:18:21;;;;;;;23.00;8.02;;;;;;;14.83;87.18;101661.81;5034709;28;20374;-71
2021/08/10 06:20:47;;;;;;;24.25;9.38;;;;;;;14.89;88.21;101672.75;5016438;28;20037;-73
2021/08/10 06:23:12;;;;;;;20.20;7.93;;;;;;;15.04;87.06;101669.59;5033949;28;20424;-71
2021/08/10 06:25:38;;;;;;;22.42;9.23;;;;;;;15.10;85.96;101669.84;5034034;28;20033;-71
2021/08/10 06:28:04;;;;;;;19.95;7.50;;;;;;;15.14;86.43;101673.91;5033869;28;20041;-72
2021/08/10 06:30:29;;;;;;;20.10;8.35;;;;;;;15.10;86.56;101669.00;5034317;28;20045;-71
2021/08/10 06:32:54;;;;;;;19.25;8.98;;;;;;;15.05;87.48;101665.91;5034450;28;20458;-71
2021/08/10 06:35:20;;;;;;;16.10;8.27;;;;;;;14.97;88.29;101664.84;5034211;28;20029;-71
2021/08/10 06:37:45;;;;;;;20.08;7.18;;;;;;;14.85;88.13;101668.69;5034194;28;20063;-71
2021/08/10 06:40:11;;;;;;;15.40;8.32;;;;;;;14.76;88.39;101670.44;5034217;28;20040;-72
2021/08/10 06:42:36;;;;;;;16.73;8.23;;;;;;;14.68;88.36;101672.97;5033803;28;20030;-71
2021/08/10 06:45:02;;;;;;;19.80;8.70;;;;;;;14.60;89.02;101680.84;5034092;28;20040;-72
2021/08/10 06:47:28;;;;;;;22.17;9.65;;;;;;;14.51;89.67;101684.41;5033822;28;20041;-70
2021/08/10 06:49:54;;;;;;;22.17;10.02;;;;;;;14.40;89.96;101685.41;5034015;28;20070;-71
2021/08/10 06:52:19;;;;;;;28.00;11.00;;;;;;;14.26;89.96;101682.19;5033437;28;20037;-71
2021/08/10 06:54:45;;;;;;;36.67;10.85;;;;;;;14.19;90.82;101682.91;5033932;28;20037;-73
2021/08/10 06:57:10;;;;;;;34.55;14.23;;;;;;;14.10;91.59;101688.13;5033547;28;20029;-73
2021/08/10 06:59:37;;;;;;;32.05;14.07;;;;;;;14.02;91.86;101687.16;5033835;28;20068;-73
2021/08/10 07:02:04;;;;;;;32.30;14.88;;;;;;;13.96;92.10;101680.53;5033534;28;20473;-73
2021/08/10 07:04:29;;;;;;;30.58;14.65;;;;;;;13.91;92.30;101683.63;5033913;28;20076;-73
2021/08/10 07:06:55;;;;;;;32.42;16.30;;;;;;;13.90;92.33;101686.44;5034064;28;20037;-73
2021/08/10 07:09:22;;;;;;;33.85;15.40;;;;;;;13.92;93.24;101693.31;5033191;28;20144;-74
2021/08/10 07:11:47;;;;;;;37.35;19.23;;;;;;;13.96;93.37;101683.22;5033617;28;20030;-74
2021/08/10 07:14:13;;;;;;;24.13;14.10;;;;;;;14.01;93.67;101683.63;5015757;28;20476;-73
2021/08/10 07:16:42;;;;;;;25.70;13.65;;;;;;;14.04;93.18;101686.00;5034175;28;20029;-73
2021/08/10 07:19:08;;;;;;;33.85;16.08;;;;;;;14.03;93.52;101686.16;5033155;28;20033;-72
2021/08/10 07:21:34;;;;;;;28.30;12.93;;;;;;;14.03;93.12;101688.81;5032478;28;20486;-73
2021/08/10 07:24:00;;;;;;;31.13;15.40;;;;;;;14.02;93.40;101693.34;5033579;28;20120;-73
2021/08/10 07:26:26;;;;;;;32.65;14.50;;;;;;;14.06;93.75;101692.09;5034070;28;20129;-73
2021/08/10 07:28:53;;;;;;;29.15;15.15;;;;;;;14.13;94.01;101691.50;5033435;28;20037;-74
2021/08/10 07:31:18;;;;;;;29.17;13.27;;;;;;;14.21;93.81;101688.94;4998940;28;20485;-73
2021/08/10 07:33:44;;;;;;;27.80;14.93;;;;;;;14.35;93.97;101688.53;5033738;28;20041;-73
2021/08/10 07:36:09;;;;;;;32.03;14.20;;;;;;;14.48;94.10;101692.72;5015848;28;20045;-74
2021/08/10 07:38:35;;;;;;;31.23;13.90;;;;;;;14.52;93.92;101681.56;5033621;28;20487;-73
2021/08/10 07:41:00;;;;;;;24.67;11.82;;;;;;;14.55;93.49;101686.63;5033177;28;20497;-73
2021/08/10 07:43:26;;;;;;;21.65;10.88;;;;;;;14.58;93.57;101691.72;5032980;28;20053;-73
2021/08/10 07:45:52;;;;;;;19.58;10.77;;;;;;;14.62;93.49;101711.06;5033337;28;20037;-73
2021/08/10 07:48:17;;;;;;;27.67;11.30;;;;;;;14.59;93.08;101706.78;5033853;28;20382;-73
2021/08/10 07:50:43;;;;;;;25.75;11.85;;;;;;;14.59;92.82;101703.28;5033573;28;20033;-73
2021/08/10 07:53:09;;;;;;;24.73;11.68;;;;;;;14.62;93.35;101709.22;5033193;28;20033;-73
2021/08/10 07:55:36;;;;;;;21.02;9.02;;;;;;;14.63;93.21;101715.44;5033139;28;20124;-74
2021/08/10 07:58:01;;;;;;;21.63;9.27;;;;;;;14.58;92.23;101713.13;5033083;28;20095;-74
2021/08/10 08:00:26;;;;;;;18.23;8.52;;;;;;;14.60;92.72;101703.13;5033114;28;20030;-73
2021/08/10 08:02:52;;;;;;;16.70;10.23;;;;;;;14.64;92.47;101711.75;5015606;28;20030;-74
2021/08/10 08:05:17;;;;;;;23.77;10.32;;;;;;;14.73;92.88;101708.19;5033436;28;20080;-74
2021/08/10 08:07:42;;;;;;;24.00;11.65;;;;;;;14.87;93.26;101712.25;5034484;28;20026;-74
2021/08/10 08:10:08;;;;;;;25.92;10.77;;;;;;;14.96;93.35;101705.19;5018939;28;20049;-74
2021/08/10 08:12:34;;;;;;;23.83;10.82;;;;;;;15.08;93.33;101701.31;5037040;28;20068;-74
2021/08/10 08:14:59;;;;;;;26.48;12.20;;;;;;;15.29;93.17;101701.06;5036931;28;20065;-74
2021/08/10 08:17:24;;;;;;;21.23;7.97;;;;;;;15.39;91.81;101706.41;5036769;28;20462;-74
2021/08/10 08:19:50;;;;;;;17.88;7.75;;;;;;;15.45;91.01;101703.13;5036808;28;20065;-73
2021/08/10 08:22:15;;;;;;;18.90;7.65;;;;;;;15.57;91.23;101711.78;5036794;28;20029;-73
2021/08/10 08:24:40;;;;;;;15.40;6.85;;;;;;;15.60;91.05;101703.44;5036901;28;20508;-74
2021/08/10 08:27:06;;;;;;;15.13;5.90;;;;;;;15.69;89.77;101712.44;5036638;28;20377;-73
2021/08/10 08:29:31;;;;;;;13.88;6.10;;;;;;;15.79;89.22;101707.84;5036866;28;20036;-74
2021/08/10 08:31:57;;;;;;;12.68;5.55;;;;;;;15.87;88.63;101704.44;5018873;28;20045;-73
2021/08/10 08:34:22;;;;;;;14.55;5.60;;;;;;;16.10;89.92;101712.84;5036576;28;20033;-73
2021/08/10 08:36:47;;;;;;;18.75;6.10;;;;;;;16.45;87.82;101711.13;5036576;28;20438;-73
2021/08/10 08:39:13;;;;;;;22.60;5.25;;;;;;;16.72;85.44;101707.44;5036581;28;20433;-73
2021/08/10 08:41:38;;;;;;;14.07;5.07;;;;;;;16.95;85.91;101723.06;5036130;28;20087;-73
2021/08/10 08:44:04;;;;;;;14.68;4.72;;;;;;;17.08;84.22;101719.94;5036375;28;20056;-73
2021/08/10 08:46:30;;;;;;;16.38;5.47;;;;;;;17.04;84.55;101714.03;5036400;28;20032;-73
2021/08/10 08:48:58;;;;;;;12.20;5.22;;;;;;;16.85;85.05;101715.06;5036046;28;20124;-73
2021/08/10 08:51:27;;;;;;;13.55;5.00;;;;;;;16.61;85.10;101715.75;5036102;28;20424;-73
2021/08/10 08:53:54;;;;;;;18.40;5.78;;;;;;;16.41;86.45;101720.50;5036199;28;20120;-73
2021/08/10 08:56:24;;;;;;;12.00;5.20;;;;;;;16.37;85.01;101728.00;5036231;28;20055;-74
2021/08/10 08:58:55;;;;;;;13.38;5.40;;;;;;;16.56;85.42;101731.50;5036242;28;20022;-73
2021/08/10 09:01:20;;;;;;;18.50;5.25;;;;;;;16.89;83.83;101724.53;5036240;28;20460;-73
2021/08/10 09:03:46;;;;;;;15.95;4.70;;;;;;;16.96;80.01;101729.25;5035963;28;20040;-73
2021/08/10 09:06:11;;;;;;;15.18;5.45;;;;;;;16.99;82.45;101726.25;5036039;28;20042;-73
2021/08/10 09:08:42;;;;;;;17.33;4.60;;;;;;;17.44;80.85;101723.28;5018436;28;20485;-73
2021/08/10 09:11:14;;;;;;;18.42;3.95;;;;;;;18.37;75.70;101723.28;5036319;28;20446;-72
2021/08/10 09:13:54;;;;;;;13.02;4.63;;;;;;;19.63;75.21;101722.59;5035909;28;20219;-73
2021/08/10 09:16:20;;;;;;;9.82;4.32;;;;;;;20.84;68.24;101735.50;5036081;28;20382;-72
2021/08/10 09:18:45;;;;;;;12.10;4.00;;;;;;;22.22;61.76;101733.00;5035010;28;20080;-73
2021/08/10 09:21:14;;;;;;;12.82;4.15;;;;;;;23.19;58.47;101729.56;5035306;28;20038;-72
2021/08/10 09:23:47;;;;;;;12.25;4.25;;;;;;;23.74;55.80;101737.69;5036025;28;20029;-72
2021/08/10 09:26:24;;;;;;;12.02;3.95;;;;;;;23.85;52.67;101733.56;5035676;28;20040;-72
2021/08/10 09:28:56;;;;;;;9.63;3.85;;;;;;;22.60;57.65;101741.69;5035372;28;20040;-72
2021/08/10 09:31:40;;;;;;;12.80;3.90;;;;;;;20.48;63.92;101738.88;5035682;28;20037;-71
2021/08/10 09:34:25;;;;;;;12.65;3.60;;;;;;;19.63;66.21;101744.19;5035557;28;20461;-71
2021/08/10 09:36:52;;;;;;;13.68;3.80;;;;;;;21.20;62.51;101745.56;5035674;28;20080;-71
2021/08/10 09:39:34;;;;;;;13.30;4.35;;;;;;;23.02;57.96;101728.16;5035286;28;20044;-71
2021/08/10 09:42:02;;;;;;;13.93;3.72;;;;;;;24.34;53.82;101741.59;5035649;28;20083;-71
2021/08/10 09:44:27;;;;;;;9.65;3.42;;;;;;;25.23;49.82;101744.78;5035301;28;20021;-71
2021/08/10 09:46:53;;;;;;;11.40;3.70;;;;;;;24.68;50.21;101736.97;5017301;28;20099;-71
2021/08/10 09:49:20;;;;;;;16.45;4.15;;;;;;;23.57;53.25;101747.25;5035359;28;20042;-71
2021/08/10 09:51:48;;;;;;;8.70;3.65;;;;;;;22.22;59.78;101754.69;5035182;28;20121;-71
2021/08/10 09:54:16;;;;;;;9.75;3.83;;;;;;;21.65;57.80;101749.09;5034896;28;20043;-71
2021/08/10 09:56:57;;;;;;;11.50;3.80;;;;;;;20.81;63.17;101754.81;5034795;28;20103;-71
2021/08/10 09:59:25;;;;;;;11.52;4.43;;;;;;;20.41;60.59;101749.59;5035671;28;20033;-71
2021/08/10 10:01:55;;;;;;;11.75;3.53;;;;;;;21.09;61.44;101752.31;5035010;28;20030;-71
2021/08/10 10:04:23;;;;;;;10.18;3.45;;;;;;;21.34;59.06;101746.59;5034815;28;20029;-71
2021/08/10 10:06:51;;;;;;;12.15;4.03;;;;;;;21.29;59.87;101748.00;5034817;28;20033;-71
2021/08/10 10:09:18;;;;;;;11.00;3.60;;;;;;;20.62;59.01;101751.59;5034690;28;20061;-71
2021/08/10 10:11:45;;;;;;;13.57;3.80;;;;;;;20.72;60.17;101751.34;5034751;28;20102;-71
2021/08/10 10:14:12;;;;;;;10.40;3.80;;;;;;;20.94;59.04;101755.00;5034774;28;20034;-71
2021/08/10 10:16:41;;;;;;;7.50;3.33;;;;;;;20.88;59.15;101747.63;5035657;28;20048;-71
2021/08/10 10:19:10;;;;;;;9.75;3.80;;;;;;;21.35;58.96;101746.41;5035068;28;20087;-71
2021/08/10 10:22:04;;;;;;;8.68;3.63;;;;;;;22.27;55.55;101742.22;5034986;28;20025;-71
2021/08/10 10:24:35;;;;;;;10.63;3.95;;;;;;;23.87;51.58;101744.22;5032084;28;20046;-70
2021/08/10 10:27:03;;;;;;;;;;;;;;;25.02;49.19;101746.75;5035681;28;20037;-71
2021/08/10 10:29:28;;;;;;;8.27;3.47;;;;;;;25.45;47.59;101754.41;5034247;28;19936;-72
2021/08/10 10:31:54;;;;;;;7.22;3.20;;;;;;;25.57;48.25;101749.06;5034080;28;20406;-71
2021/08/10 10:34:20;;;;;;;8.82;3.38;;;;;;;25.53;44.10;101756.03;5035020;28;20033;-71
2021/08/10 10:36:47;;;;;;;9.07;3.20;;;;;;;25.28;44.76;101750.44;5034943;28;20121;-72
2021/08/10 10:39:19;;;;;;;8.18;3.47;;;;;;;25.21;45.90;101746.91;5034181;28;20116;-72
2021/08/10 10:41:45;;;;;;;6.88;3.20;;;;;;;25.68;43.70;101748.41;5034239;28;20048;-72
2021/08/10 10:44:10;;;;;;;12.77;3.50;;;;;;;25.63;44.49;101748.22;5034239;28;20033;-72
2021/08/10 10:46:38;;;;;;;8.15;3.70;;;;;;;24.87;47.62;101749.72;5034142;28;20488;-71
2021/08/10 10:49:08;;;;;;;11.45;3.60;;;;;;;24.78;47.01;101759.13;5034297;28;20151;-72
2021/08/10 10:51:38;;;;;;;7.75;3.30;;;;;;;25.29;46.08;101752.94;5033986;28;20124;-71
2021/08/10 10:54:25;;;;;;;6.68;2.67;;;;;;;25.35;45.41;101754.00;5034144;28;20216;-72
2021/08/10 10:57:00;;;;;;;9.23;3.42;;;;;;;25.58;43.43;101752.66;5017679;28;20061;-72
2021/08/10 10:59:35;;;;;;;8.40;3.35;;;;;;;25.80;43.15;101759.44;5033766;28;20475;-72
2021/08/10 11:02:12;;;;;;;11.32;3.42;;;;;;;24.78;46.22;101756.41;5034326;28;20484;-72
2021/08/10 11:04:37;;;;;;;8.85;3.50;;;;;;;24.61;46.01;101756.84;5033834;28;20122;-71
2021/08/10 11:07:35;;;;;;;9.48;3.58;;;;;;;24.95;46.65;101759.53;5033946;28;20096;-72
2021/08/10 11:10:00;;;;;;;12.07;3.78;;;;;;;25.07;47.90;101757.00;5033585;28;20054;-72
2021/08/10 11:12:45;;;;;;;8.70;3.45;;;;;;;25.18;46.67;101756.31;5033870;28;20048;-71
2021/08/10 11:15:19;;;;;;;6.90;3.15;;;;;;;25.15;43.94;101767.66;5034290;28;20029;-72
2021/08/10 11:18:07;;;;;;;6.88;3.00;;;;;;;25.12;44.08;101759.91;5033800;28;20079;-72
2021/08/10 11:20:34;;;;;;;6.25;3.30;;;;;;;25.05;42.26;101762.66;5003643;28;20087;-72